createdAt,value
2019-04-12T00:01:14.617Z,5.02
2019-04-12T00:03:48.403Z,4.98
2019-04-12T00:06:22.206Z,4.99
2019-04-12T00:08:56.203Z,5.02
2019-04-12T00:11:30.138Z,5.00
2019-04-12T00:14:04.182Z,4.97
2019-04-12T00:16:38.022Z,5.03
2019-04-12T00:19:13.912Z,5.04
2019-04-12T00:21:48.109Z,4.99
2019-04-12T00:24:22.010Z,4.89
2019-04-12T00:26:55.894Z,4.89
2019-04-12T00:29:29.663Z,4.89
2019-04-12T00:32:03.572Z,4.89
2019-04-12T00:34:37.308Z,4.86
2019-04-12T00:37:11.164Z,4.97
2019-04-12T00:39:44.872Z,4.94
2019-04-12T00:42:18.669Z,4.95
2019-04-12T00:44:52.832Z,4.90
2019-04-12T00:47:27.361Z,4.90
2019-04-12T00:50:01.338Z,4.88
2019-04-12T00:52:35.217Z,4.83
2019-04-12T00:55:09.204Z,4.77
2019-04-12T00:57:46.148Z,4.82
2019-04-12T01:00:18.814Z,4.85
2019-04-12T01:02:57.104Z,4.87
2019-04-12T01:05:32.584Z,4.84
2019-04-12T01:08:07.273Z,4.80
2019-04-12T01:10:41.703Z,4.80
2019-04-12T01:13:15.578Z,4.73
2019-04-12T01:15:49.817Z,4.76
2019-04-12T01:18:23.822Z,4.78
2019-04-12T01:20:58.101Z,4.79
2019-04-12T01:23:33.454Z,4.84
2019-04-12T01:26:13.014Z,4.77
2019-04-12T01:28:48.410Z,4.80
2019-04-12T01:31:22.233Z,4.76
2019-04-12T01:33:56.073Z,4.68
2019-04-12T01:36:29.814Z,4.67
2019-04-12T01:39:04.739Z,4.66
2019-04-12T01:41:38.626Z,4.60
2019-04-12T01:44:12.551Z,4.64
2019-04-12T01:46:46.358Z,4.65
2019-04-12T01:49:20.478Z,4.60
2019-04-12T01:51:54.246Z,4.68
2019-04-12T01:54:28.144Z,4.63
2019-04-12T01:57:01.985Z,4.62
2019-04-12T01:59:36.003Z,4.62
2019-04-12T02:02:09.880Z,4.65
2019-04-12T02:04:44.098Z,4.60
2019-04-12T02:07:17.952Z,4.58
2019-04-12T02:09:51.828Z,4.59
2019-04-12T02:12:25.772Z,4.51
2019-04-12T02:14:59.616Z,4.45
2019-04-12T02:17:33.383Z,4.33
2019-04-12T02:20:08.816Z,4.18
2019-04-12T02:22:42.592Z,4.07
2019-04-12T02:25:21.483Z,4.07
2019-04-12T02:27:52.221Z,4.03
2019-04-12T02:30:29.712Z,4.04
2019-04-12T02:33:03.736Z,4.02
2019-04-12T02:35:42.626Z,4.00
2019-04-12T02:38:16.894Z,3.98
2019-04-12T02:40:52.480Z,3.96
2019-04-12T02:43:28.296Z,3.95
2019-04-12T02:46:05.924Z,4.02
2019-04-12T02:48:51.568Z,4.05
2019-04-12T02:51:42.435Z,4.07
2019-04-12T02:54:35.909Z,3.98
2019-04-12T02:57:28.628Z,4.00
2019-04-12T03:00:05.402Z,3.99
2019-04-12T03:02:40.221Z,4.01
2019-04-12T03:05:14.528Z,4.03
2019-04-12T03:07:48.899Z,4.03
2019-04-12T03:10:23.182Z,4.05
2019-04-12T03:12:58.821Z,4.05
2019-04-12T03:15:35.671Z,4.08
2019-04-12T03:18:09.640Z,4.08
2019-04-12T03:20:43.863Z,4.09
2019-04-12T03:23:17.867Z,4.08
2019-04-12T03:25:56.202Z,3.95
2019-04-12T03:28:29.350Z,4.02
2019-04-12T03:31:03.883Z,3.95
2019-04-12T03:33:38.389Z,4.02
2019-04-12T03:36:12.612Z,4.03
2019-04-12T03:38:46.715Z,4.08
2019-04-12T03:41:20.922Z,4.07
2019-04-12T03:43:55.390Z,4.08
2019-04-12T03:46:29.984Z,4.09
2019-04-12T03:49:04.526Z,4.06
2019-04-12T03:51:38.595Z,4.07
2019-04-12T03:54:12.960Z,4.09
2019-04-12T03:56:47.401Z,4.11
2019-04-12T03:59:23.258Z,4.11
2019-04-12T04:02:00.424Z,4.05
2019-04-12T04:04:34.510Z,4.02
2019-04-12T04:07:08.736Z,4.01
2019-04-12T04:09:42.944Z,3.94
2019-04-12T04:12:17.607Z,3.83
2019-04-12T04:14:52.000Z,3.78
2019-04-12T04:17:45.449Z,3.76
2019-04-12T04:20:37.335Z,3.78
2019-04-12T04:23:27.122Z,3.70
2019-04-12T04:26:22.424Z,3.72
2019-04-12T04:28:53.274Z,3.73
2019-04-12T04:31:33.275Z,3.74
2019-04-12T04:34:07.117Z,3.69
2019-04-12T04:36:42.913Z,3.58
2019-04-12T04:39:17.288Z,3.42
2019-04-12T04:41:52.207Z,3.37
2019-04-12T04:44:26.773Z,3.29
2019-04-12T04:47:01.047Z,3.29
2019-04-12T04:49:34.915Z,3.21
2019-04-12T04:52:09.194Z,3.18
2019-04-12T04:54:43.353Z,3.14
2019-04-12T04:57:17.639Z,3.22
2019-04-12T04:59:51.626Z,3.08
2019-04-12T05:02:25.684Z,3.13
2019-04-12T05:04:59.590Z,3.16
2019-04-12T05:07:33.646Z,3.15
2019-04-12T05:10:08.402Z,3.17
2019-04-12T05:12:42.378Z,3.16
2019-04-12T05:15:17.039Z,3.10
2019-04-12T05:17:50.985Z,3.05
2019-04-12T05:20:25.289Z,2.98
2019-04-12T05:22:59.756Z,2.98
2019-04-12T05:25:34.122Z,3.00
2019-04-12T05:28:08.535Z,3.02
2019-04-12T05:30:42.992Z,3.06
2019-04-12T05:33:17.089Z,3.06
2019-04-12T05:35:51.455Z,3.10
2019-04-12T05:38:25.407Z,3.13
2019-04-12T05:40:59.720Z,3.15
2019-04-12T05:43:35.248Z,3.21
2019-04-12T05:46:21.125Z,3.25
2019-04-12T05:49:00.735Z,3.26
2019-04-12T05:51:35.238Z,3.29
2019-04-12T05:54:10.229Z,3.34
2019-04-12T05:56:44.078Z,3.48
2019-04-12T05:59:36.970Z,3.63
2019-04-12T06:02:31.259Z,3.67
2019-04-12T06:05:07.147Z,3.77
2019-04-12T06:07:41.098Z,3.84
2019-04-12T06:10:15.348Z,3.94
2019-04-12T06:12:49.518Z,3.92
2019-04-12T06:15:23.602Z,3.95
2019-04-12T06:17:58.143Z,4.01
2019-04-12T06:20:53.771Z,4.03
2019-04-12T06:23:27.576Z,4.22
2019-04-12T06:26:26.846Z,4.25
2019-04-12T06:29:00.612Z,4.32
2019-04-12T06:31:34.617Z,4.39
